Portada
METAR-TAF:

METAR-TAF

Aeroports :

Harbin, Xina

latitud: 45-45N, longitud: 126-46E, altitud: 143 m

Observació

L'informe es va fer fa 1 hora i 3 minuts, a les 10:00 UTC
Vent 4 kt del Nord
Temperatura 8°C
Humitat 31%
Pressió 1016 hPa
Visibilitat 10 km o més
sense núvols per sota de 1500 mi sense presència de cumulonimbus.

METAR: ZYHB 181000Z 36002MPS CAVOK 08/M08 Q1016 NOSIG

Hora: 19:03 (11:03 UTC)

Pronòstic

L'informe es va fer fa 8 hores i 2 minuts, a les 03:01 UTC
Pronòstic vàlid del 18 a les 06 UTC al 19 a les 06 UTC
Vent 21 kt del Nord/Nord-Oest amb ràfegues de 31 kt
Visibilitat: 6000 m
Núvols disperses a una alçada de 3000 ft
Evolucionant progressivament
l' 18 a les 07 UTC al 18 a les 09 UTC
Vent 8 kt del Nord/Nord-Oest

TAF: ZYHB 180301Z 1806/1906 33011G16MPS 6000 SCT030 TX11/1806Z TNM02/21Z BECMG 1807/1809 34004MPS

Observacions i pronòstics meteorològics de més de 4000 aeroports (METAR i TAF).

Les estacions disponibles són els punts grocs i vermells al mapa.

Posi el ratolí al punt desitjat per veure el nom de l'estació.

Feu clic per veure les observacions i els pronòstics meteorològics.

Per canviar el mapa: feu clic els botons verds amb una creu de color negre per apropar; al botó verd amb un guió per allunyar la imatge; o en les fletxes verdes per a mapes adjacents.


METAR-TAF: